sensor_id;sensor_type;location;lat;lon;timestamp;temperature;humidity
18365;DHT22;9309;52.126;11.616;2023-01-08T00:00:52;6.20;84.90
18365;DHT22;9309;52.126;11.616;2023-01-08T00:03:19;6.30;84.50
18365;DHT22;9309;52.126;11.616;2023-01-08T00:05:45;6.20;85.10
18365;DHT22;9309;52.126;11.616;2023-01-08T00:08:12;6.20;85.00
18365;DHT22;9309;52.126;11.616;2023-01-08T00:10:40;6.20;85.00
18365;DHT22;9309;52.126;11.616;2023-01-08T00:13:06;6.30;83.90
18365;DHT22;9309;52.126;11.616;2023-01-08T00:15:33;6.10;84.90
18365;DHT22;9309;52.126;11.616;2023-01-08T00:18:00;6.00;85.50
18365;DHT22;9309;52.126;11.616;2023-01-08T00:20:27;5.90;85.80
18365;DHT22;9309;52.126;11.616;2023-01-08T00:22:54;5.90;86.10
18365;DHT22;9309;52.126;11.616;2023-01-08T00:25:20;5.90;86.30
18365;DHT22;9309;52.126;11.616;2023-01-08T00:27:48;5.90;86.30
18365;DHT22;9309;52.126;11.616;2023-01-08T00:30:15;5.90;86.10
18365;DHT22;9309;52.126;11.616;2023-01-08T00:32:42;5.90;86.10
18365;DHT22;9309;52.126;11.616;2023-01-08T00:35:09;5.90;86.10
18365;DHT22;9309;52.126;11.616;2023-01-08T00:37:35;6.10;85.70
18365;DHT22;9309;52.126;11.616;2023-01-08T00:40:03;6.10;85.60
18365;DHT22;9309;52.126;11.616;2023-01-08T00:42:29;6.20;85.10
18365;DHT22;9309;52.126;11.616;2023-01-08T00:44:57;6.20;84.80
18365;DHT22;9309;52.126;11.616;2023-01-08T00:47:24;6.30;84.70
18365;DHT22;9309;52.126;11.616;2023-01-08T00:49:51;6.40;84.30
18365;DHT22;9309;52.126;11.616;2023-01-08T00:52:17;6.50;83.50
18365;DHT22;9309;52.126;11.616;2023-01-08T00:54:44;6.60;83.00
18365;DHT22;9309;52.126;11.616;2023-01-08T00:57:11;6.70;82.20
18365;DHT22;9309;52.126;11.616;2023-01-08T00:59:37;6.90;81.70
18365;DHT22;9309;52.126;11.616;2023-01-08T01:02:05;6.80;81.60
18365;DHT22;9309;52.126;11.616;2023-01-08T01:04:32;6.80;81.90
18365;DHT22;9309;52.126;11.616;2023-01-08T01:06:59;6.70;82.10
18365;DHT22;9309;52.126;11.616;2023-01-08T01:09:25;6.70;82.40
18365;DHT22;9309;52.126;11.616;2023-01-08T01:11:52;6.70;82.30
18365;DHT22;9309;52.126;11.616;2023-01-08T01:14:19;6.70;82.40
18365;DHT22;9309;52.126;11.616;2023-01-08T01:16:46;6.70;82.40
18365;DHT22;9309;52.126;11.616;2023-01-08T01:19:14;6.70;82.70
18365;DHT22;9309;52.126;11.616;2023-01-08T01:21:41;6.80;82.40
18365;DHT22;9309;52.126;11.616;2023-01-08T01:24:10;6.80;82.20
18365;DHT22;9309;52.126;11.616;2023-01-08T01:26:38;6.80;82.20
18365;DHT22;9309;52.126;11.616;2023-01-08T01:29:05;6.80;82.30
18365;DHT22;9309;52.126;11.616;2023-01-08T01:31:32;6.80;82.30
18365;DHT22;9309;52.126;11.616;2023-01-08T01:33:59;6.80;82.50
18365;DHT22;9309;52.126;11.616;2023-01-08T01:36:27;6.80;82.60
18365;DHT22;9309;52.126;11.616;2023-01-08T01:38:55;6.80;82.40
18365;DHT22;9309;52.126;11.616;2023-01-08T01:41:25;6.70;82.50
18365;DHT22;9309;52.126;11.616;2023-01-08T01:43:53;6.80;82.40
18365;DHT22;9309;52.126;11.616;2023-01-08T01:46:27;6.70;82.50
18365;DHT22;9309;52.126;11.616;2023-01-08T01:48:58;6.70;82.60
18365;DHT22;9309;52.126;11.616;2023-01-08T01:51:30;6.70;82.90
18365;DHT22;9309;52.126;11.616;2023-01-08T01:53:58;6.70;82.90
18365;DHT22;9309;52.126;11.616;2023-01-08T01:56:26;6.70;82.80
18365;DHT22;9309;52.126;11.616;2023-01-08T01:58:53;6.70;82.80
18365;DHT22;9309;52.126;11.616;2023-01-08T02:01:21;6.70;82.80
18365;DHT22;9309;52.126;11.616;2023-01-08T02:03:48;6.70;82.80
18365;DHT22;9309;52.126;11.616;2023-01-08T02:06:21;6.70;82.70
18365;DHT22;9309;52.126;11.616;2023-01-08T02:08:57;6.60;83.00
18365;DHT22;9309;52.126;11.616;2023-01-08T02:11:33;6.60;83.20
18365;DHT22;9309;52.126;11.616;2023-01-08T02:14:07;6.50;83.60
18365;DHT22;9309;52.126;11.616;2023-01-08T02:16:40;6.50;83.80
18365;DHT22;9309;52.126;11.616;2023-01-08T02:19:16;6.50;84.00
18365;DHT22;9309;52.126;11.616;2023-01-08T02:21:52;6.40;84.40
18365;DHT22;9309;52.126;11.616;2023-01-08T02:24:33;6.30;84.70
18365;DHT22;9309;52.126;11.616;2023-01-08T02:27:07;6.30;85.20
18365;DHT22;9309;52.126;11.616;2023-01-08T02:29:37;6.30;85.40
18365;DHT22;9309;52.126;11.616;2023-01-08T02:32:04;6.30;85.40
18365;DHT22;9309;52.126;11.616;2023-01-08T02:34:31;6.20;85.70
18365;DHT22;9309;52.126;11.616;2023-01-08T02:36:58;6.20;85.90
18365;DHT22;9309;52.126;11.616;2023-01-08T02:39:43;6.30;85.60
18365;DHT22;9309;52.126;11.616;2023-01-08T02:42:18;6.30;85.60
18365;DHT22;9309;52.126;11.616;2023-01-08T02:44:54;6.30;85.80
18365;DHT22;9309;52.126;11.616;2023-01-08T02:47:28;6.30;85.70
18365;DHT22;9309;52.126;11.616;2023-01-08T02:50:11;6.40;85.60
18365;DHT22;9309;52.126;11.616;2023-01-08T02:52:49;6.40;85.40
18365;DHT22;9309;52.126;11.616;2023-01-08T02:55:20;6.40;85.50
18365;DHT22;9309;52.126;11.616;2023-01-08T02:57:49;6.40;85.70
18365;DHT22;9309;52.126;11.616;2023-01-08T03:00:17;6.30;85.90
18365;DHT22;9309;52.126;11.616;2023-01-08T03:02:45;6.40;85.90
18365;DHT22;9309;52.126;11.616;2023-01-08T03:05:20;6.40;85.60
18365;DHT22;9309;52.126;11.616;2023-01-08T03:07:47;6.50;85.50
18365;DHT22;9309;52.126;11.616;2023-01-08T03:10:15;6.50;85.30
18365;DHT22;9309;52.126;11.616;2023-01-08T03:12:54;6.40;85.40
18365;DHT22;9309;52.126;11.616;2023-01-08T03:15:26;6.40;85.80
18365;DHT22;9309;52.126;11.616;2023-01-08T03:17:59;6.50;85.50
18365;DHT22;9309;52.126;11.616;2023-01-08T03:20:27;6.70;84.60
18365;DHT22;9309;52.126;11.616;2023-01-08T03:22:57;6.70;84.40
18365;DHT22;9309;52.126;11.616;2023-01-08T03:25:27;6.60;84.30
18365;DHT22;9309;52.126;11.616;2023-01-08T03:28:01;6.50;84.90
18365;DHT22;9309;52.126;11.616;2023-01-08T03:30:29;6.50;85.20
18365;DHT22;9309;52.126;11.616;2023-01-08T03:32:58;6.50;85.00
18365;DHT22;9309;52.126;11.616;2023-01-08T03:35:26;6.50;85.10
18365;DHT22;9309;52.126;11.616;2023-01-08T03:37:56;6.50;85.00
18365;DHT22;9309;52.126;11.616;2023-01-08T03:40:28;6.50;85.10
18365;DHT22;9309;52.126;11.616;2023-01-08T03:42:57;6.50;85.20
18365;DHT22;9309;52.126;11.616;2023-01-08T03:45:26;6.50;85.30
18365;DHT22;9309;52.126;11.616;2023-01-08T03:47:54;6.60;85.20
18365;DHT22;9309;52.126;11.616;2023-01-08T03:50:25;6.60;85.00
18365;DHT22;9309;52.126;11.616;2023-01-08T03:52:53;6.70;84.90
18365;DHT22;9309;52.126;11.616;2023-01-08T03:55:19;6.70;84.60
18365;DHT22;9309;52.126;11.616;2023-01-08T03:57:46;6.90;83.80
18365;DHT22;9309;52.126;11.616;2023-01-08T04:00:15;6.90;83.90
18365;DHT22;9309;52.126;11.616;2023-01-08T04:02:42;7.00;83.10
18365;DHT22;9309;52.126;11.616;2023-01-08T04:05:09;7.00;83.00
18365;DHT22;9309;52.126;11.616;2023-01-08T04:07:35;7.00;83.00
18365;DHT22;9309;52.126;11.616;2023-01-08T04:10:02;7.00;83.10
18365;DHT22;9309;52.126;11.616;2023-01-08T04:12:29;7.00;83.30
18365;DHT22;9309;52.126;11.616;2023-01-08T04:14:56;7.00;82.80
18365;DHT22;9309;52.126;11.616;2023-01-08T04:17:24;7.00;83.30
18365;DHT22;9309;52.126;11.616;2023-01-08T04:19:51;6.90;83.70
18365;DHT22;9309;52.126;11.616;2023-01-08T04:22:17;6.90;83.50
18365;DHT22;9309;52.126;11.616;2023-01-08T04:24:44;6.90;83.50
18365;DHT22;9309;52.126;11.616;2023-01-08T04:27:11;6.90;83.50
18365;DHT22;9309;52.126;11.616;2023-01-08T04:29:37;6.90;83.40
18365;DHT22;9309;52.126;11.616;2023-01-08T04:32:04;6.90;83.50
18365;DHT22;9309;52.126;11.616;2023-01-08T04:34:32;6.90;83.80
18365;DHT22;9309;52.126;11.616;2023-01-08T04:36:59;6.90;83.70
18365;DHT22;9309;52.126;11.616;2023-01-08T04:39:26;6.90;83.90
18365;DHT22;9309;52.126;11.616;2023-01-08T04:41:52;7.00;83.90
18365;DHT22;9309;52.126;11.616;2023-01-08T04:44:19;7.10;83.60
18365;DHT22;9309;52.126;11.616;2023-01-08T04:46:46;7.40;82.80
18365;DHT22;9309;52.126;11.616;2023-01-08T04:49:13;7.50;81.40
18365;DHT22;9309;52.126;11.616;2023-01-08T04:51:41;7.60;81.10
18365;DHT22;9309;52.126;11.616;2023-01-08T04:54:08;7.80;80.30
18365;DHT22;9309;52.126;11.616;2023-01-08T04:56:34;8.00;79.90
18365;DHT22;9309;52.126;11.616;2023-01-08T04:59:01;7.90;80.20
18365;DHT22;9309;52.126;11.616;2023-01-08T05:01:28;7.90;80.60
18365;DHT22;9309;52.126;11.616;2023-01-08T05:03:56;7.90;79.80
18365;DHT22;9309;52.126;11.616;2023-01-08T05:06:23;8.00;79.20
18365;DHT22;9309;52.126;11.616;2023-01-08T05:08:51;8.00;79.20
18365;DHT22;9309;52.126;11.616;2023-01-08T05:11:18;8.00;78.90
18365;DHT22;9309;52.126;11.616;2023-01-08T05:13:47;7.70;80.40
18365;DHT22;9309;52.126;11.616;2023-01-08T05:16:14;7.60;81.10
18365;DHT22;9309;52.126;11.616;2023-01-08T05:18:41;7.50;81.20
18365;DHT22;9309;52.126;11.616;2023-01-08T05:21:08;7.30;82.10
18365;DHT22;9309;52.126;11.616;2023-01-08T05:23:34;7.20;83.10
18365;DHT22;9309;52.126;11.616;2023-01-08T05:26:04;7.10;83.50
18365;DHT22;9309;52.126;11.616;2023-01-08T05:28:32;7.10;83.60
18365;DHT22;9309;52.126;11.616;2023-01-08T05:30:59;7.10;83.80
18365;DHT22;9309;52.126;11.616;2023-01-08T05:33:25;7.10;83.70
18365;DHT22;9309;52.126;11.616;2023-01-08T05:35:52;7.20;83.40
18365;DHT22;9309;52.126;11.616;2023-01-08T05:38:19;7.20;83.60
18365;DHT22;9309;52.126;11.616;2023-01-08T05:40:46;7.30;83.20
18365;DHT22;9309;52.126;11.616;2023-01-08T05:43:14;7.30;83.10
18365;DHT22;9309;52.126;11.616;2023-01-08T05:45:41;7.30;83.10
18365;DHT22;9309;52.126;11.616;2023-01-08T05:48:08;7.30;82.90
18365;DHT22;9309;52.126;11.616;2023-01-08T05:50:34;7.40;82.80
18365;DHT22;9309;52.126;11.616;2023-01-08T05:53:05;7.40;82.80
18365;DHT22;9309;52.126;11.616;2023-01-08T05:55:32;7.40;82.70
18365;DHT22;9309;52.126;11.616;2023-01-08T05:58:00;7.40;82.60
18365;DHT22;9309;52.126;11.616;2023-01-08T06:00:28;7.50;82.70
18365;DHT22;9309;52.126;11.616;2023-01-08T06:02:54;7.50;82.60
18365;DHT22;9309;52.126;11.616;2023-01-08T06:05:21;7.60;82.10
18365;DHT22;9309;52.126;11.616;2023-01-08T06:07:48;7.60;82.00
18365;DHT22;9309;52.126;11.616;2023-01-08T06:10:14;7.60;81.90
18365;DHT22;9309;52.126;11.616;2023-01-08T06:12:41;7.60;81.90
18365;DHT22;9309;52.126;11.616;2023-01-08T06:15:09;7.60;81.80
18365;DHT22;9309;52.126;11.616;2023-01-08T06:17:38;7.60;82.10
18365;DHT22;9309;52.126;11.616;2023-01-08T06:20:05;7.70;81.70
18365;DHT22;9309;52.126;11.616;2023-01-08T06:22:32;7.70;81.50
18365;DHT22;9309;52.126;11.616;2023-01-08T06:24:59;7.60;81.90
18365;DHT22;9309;52.126;11.616;2023-01-08T06:27:26;7.60;81.80
18365;DHT22;9309;52.126;11.616;2023-01-08T06:29:53;7.60;81.60
18365;DHT22;9309;52.126;11.616;2023-01-08T06:32:19;7.60;81.40
18365;DHT22;9309;52.126;11.616;2023-01-08T06:34:47;7.70;81.60
18365;DHT22;9309;52.126;11.616;2023-01-08T06:37:14;7.70;81.50
18365;DHT22;9309;52.126;11.616;2023-01-08T06:39:41;7.60;81.70
18365;DHT22;9309;52.126;11.616;2023-01-08T06:42:07;7.70;81.80
18365;DHT22;9309;52.126;11.616;2023-01-08T06:44:34;7.70;81.50
18365;DHT22;9309;52.126;11.616;2023-01-08T06:47:01;7.70;81.60
18365;DHT22;9309;52.126;11.616;2023-01-08T06:49:27;7.70;81.60
18365;DHT22;9309;52.126;11.616;2023-01-08T06:51:55;7.80;81.40
18365;DHT22;9309;52.126;11.616;2023-01-08T06:54:22;7.80;81.30
18365;DHT22;9309;52.126;11.616;2023-01-08T06:56:49;7.90;81.10
18365;DHT22;9309;52.126;11.616;2023-01-08T06:59:15;7.90;81.10
18365;DHT22;9309;52.126;11.616;2023-01-08T07:01:42;7.80;81.50
18365;DHT22;9309;52.126;11.616;2023-01-08T07:04:09;7.90;81.40
18365;DHT22;9309;52.126;11.616;2023-01-08T07:06:35;7.90;81.70
18365;DHT22;9309;52.126;11.616;2023-01-08T07:09:03;7.90;81.70
18365;DHT22;9309;52.126;11.616;2023-01-08T07:11:30;8.00;81.40
18365;DHT22;9309;52.126;11.616;2023-01-08T07:13:57;8.00;81.40
18365;DHT22;9309;52.126;11.616;2023-01-08T07:16:23;8.10;81.00
18365;DHT22;9309;52.126;11.616;2023-01-08T07:18:50;8.00;81.20
18365;DHT22;9309;52.126;11.616;2023-01-08T07:21:16;8.00;81.50
18365;DHT22;9309;52.126;11.616;2023-01-08T07:23:47;8.00;81.70
18365;DHT22;9309;52.126;11.616;2023-01-08T07:26:15;8.00;81.70
18365;DHT22;9309;52.126;11.616;2023-01-08T07:28:42;8.00;81.70
18365;DHT22;9309;52.126;11.616;2023-01-08T07:31:09;8.00;82.00
18365;DHT22;9309;52.126;11.616;2023-01-08T07:33:36;7.90;82.60
18365;DHT22;9309;52.126;11.616;2023-01-08T07:36:04;7.90;82.80
18365;DHT22;9309;52.126;11.616;2023-01-08T07:38:31;7.90;83.40
18365;DHT22;9309;52.126;11.616;2023-01-08T07:40:58;7.90;83.90
18365;DHT22;9309;52.126;11.616;2023-01-08T07:43:26;7.80;84.50
18365;DHT22;9309;52.126;11.616;2023-01-08T07:45:54;7.80;84.80
18365;DHT22;9309;52.126;11.616;2023-01-08T07:48:21;7.70;85.30
18365;DHT22;9309;52.126;11.616;2023-01-08T07:50:47;7.70;85.30
18365;DHT22;9309;52.126;11.616;2023-01-08T07:53:14;7.70;85.40
18365;DHT22;9309;52.126;11.616;2023-01-08T07:55:42;7.70;85.60
18365;DHT22;9309;52.126;11.616;2023-01-08T07:58:10;7.80;85.60
18365;DHT22;9309;52.126;11.616;2023-01-08T08:00:38;7.80;85.50
18365;DHT22;9309;52.126;11.616;2023-01-08T08:03:06;7.70;85.60
18365;DHT22;9309;52.126;11.616;2023-01-08T08:05:34;7.70;85.80
18365;DHT22;9309;52.126;11.616;2023-01-08T08:08:00;7.80;85.90
18365;DHT22;9309;52.126;11.616;2023-01-08T08:10:27;7.70;86.00
18365;DHT22;9309;52.126;11.616;2023-01-08T08:12:54;7.70;86.70
18365;DHT22;9309;52.126;11.616;2023-01-08T08:15:21;7.70;87.30
18365;DHT22;9309;52.126;11.616;2023-01-08T08:17:49;7.70;88.40
18365;DHT22;9309;52.126;11.616;2023-01-08T08:20:16;7.60;88.90
18365;DHT22;9309;52.126;11.616;2023-01-08T08:22:43;7.50;89.60
18365;DHT22;9309;52.126;11.616;2023-01-08T08:25:10;7.50;90.40
18365;DHT22;9309;52.126;11.616;2023-01-08T08:27:36;7.40;90.90
18365;DHT22;9309;52.126;11.616;2023-01-08T08:30:04;7.40;91.70
18365;DHT22;9309;52.126;11.616;2023-01-08T08:32:31;7.40;92.40
18365;DHT22;9309;52.126;11.616;2023-01-08T08:34:59;7.30;93.00
18365;DHT22;9309;52.126;11.616;2023-01-08T08:37:26;7.30;93.60
18365;DHT22;9309;52.126;11.616;2023-01-08T08:39:53;7.30;93.90
18365;DHT22;9309;52.126;11.616;2023-01-08T08:42:20;7.40;94.30
18365;DHT22;9309;52.126;11.616;2023-01-08T08:44:46;7.30;94.40
18365;DHT22;9309;52.126;11.616;2023-01-08T08:47:13;7.30;94.80
18365;DHT22;9309;52.126;11.616;2023-01-08T08:49:40;7.40;94.90
18365;DHT22;9309;52.126;11.616;2023-01-08T08:52:08;7.40;94.80
18365;DHT22;9309;52.126;11.616;2023-01-08T08:54:35;7.40;95.00
18365;DHT22;9309;52.126;11.616;2023-01-08T08:57:06;7.40;95.40
18365;DHT22;9309;52.126;11.616;2023-01-08T08:59:34;7.50;95.50
18365;DHT22;9309;52.126;11.616;2023-01-08T09:02:00;7.40;95.50
18365;DHT22;9309;52.126;11.616;2023-01-08T09:04:29;7.50;95.30
18365;DHT22;9309;52.126;11.616;2023-01-08T09:06:56;7.50;95.20
18365;DHT22;9309;52.126;11.616;2023-01-08T09:09:24;7.50;95.30
18365;DHT22;9309;52.126;11.616;2023-01-08T09:11:51;7.50;95.30
18365;DHT22;9309;52.126;11.616;2023-01-08T09:14:18;7.60;95.30
18365;DHT22;9309;52.126;11.616;2023-01-08T09:16:44;7.60;95.00
18365;DHT22;9309;52.126;11.616;2023-01-08T09:19:11;7.70;94.90
18365;DHT22;9309;52.126;11.616;2023-01-08T09:21:38;7.70;94.80
18365;DHT22;9309;52.126;11.616;2023-01-08T09:24:05;7.70;94.90
18365;DHT22;9309;52.126;11.616;2023-01-08T09:26:34;7.80;94.80
18365;DHT22;9309;52.126;11.616;2023-01-08T09:29:00;7.80;94.70
18365;DHT22;9309;52.126;11.616;2023-01-08T09:31:27;7.90;94.30
18365;DHT22;9309;52.126;11.616;2023-01-08T09:33:54;8.00;94.30
18365;DHT22;9309;52.126;11.616;2023-01-08T09:36:21;8.10;94.10
18365;DHT22;9309;52.126;11.616;2023-01-08T09:38:48;8.10;94.00
18365;DHT22;9309;52.126;11.616;2023-01-08T09:41:17;8.10;93.80
18365;DHT22;9309;52.126;11.616;2023-01-08T09:43:49;8.10;94.00
18365;DHT22;9309;52.126;11.616;2023-01-08T09:46:18;8.20;93.80
18365;DHT22;9309;52.126;11.616;2023-01-08T09:48:47;8.20;93.80
18365;DHT22;9309;52.126;11.616;2023-01-08T09:51:16;8.20;93.80
18365;DHT22;9309;52.126;11.616;2023-01-08T09:53:44;8.10;93.90
18365;DHT22;9309;52.126;11.616;2023-01-08T09:56:13;8.10;94.00
18365;DHT22;9309;52.126;11.616;2023-01-08T09:58:43;8.20;94.00
18365;DHT22;9309;52.126;11.616;2023-01-08T10:01:13;8.30;93.90
18365;DHT22;9309;52.126;11.616;2023-01-08T10:03:43;8.40;93.60
18365;DHT22;9309;52.126;11.616;2023-01-08T10:06:12;8.50;93.10
18365;DHT22;9309;52.126;11.616;2023-01-08T10:08:39;8.50;92.30
18365;DHT22;9309;52.126;11.616;2023-01-08T10:11:08;8.50;92.60
18365;DHT22;9309;52.126;11.616;2023-01-08T10:13:37;8.40;92.70
18365;DHT22;9309;52.126;11.616;2023-01-08T10:16:07;8.30;92.60
18365;DHT22;9309;52.126;11.616;2023-01-08T10:18:36;8.30;92.60
18365;DHT22;9309;52.126;11.616;2023-01-08T10:21:03;8.30;93.00
18365;DHT22;9309;52.126;11.616;2023-01-08T10:23:30;8.30;93.00
18365;DHT22;9309;52.126;11.616;2023-01-08T10:25:58;8.30;92.70
18365;DHT22;9309;52.126;11.616;2023-01-08T10:28:26;8.30;92.90
18365;DHT22;9309;52.126;11.616;2023-01-08T10:30:58;8.20;92.50
18365;DHT22;9309;52.126;11.616;2023-01-08T10:33:30;8.30;92.60
18365;DHT22;9309;52.126;11.616;2023-01-08T10:36:00;8.40;92.60
18365;DHT22;9309;52.126;11.616;2023-01-08T10:38:29;8.40;91.90
18365;DHT22;9309;52.126;11.616;2023-01-08T10:40:57;8.40;91.50
18365;DHT22;9309;52.126;11.616;2023-01-08T10:43:28;8.40;91.70
18365;DHT22;9309;52.126;11.616;2023-01-08T10:45:57;8.50;91.50
18365;DHT22;9309;52.126;11.616;2023-01-08T10:48:31;8.60;91.20
18365;DHT22;9309;52.126;11.616;2023-01-08T10:51:14;8.60;90.90
18365;DHT22;9309;52.126;11.616;2023-01-08T10:53:42;8.60;90.50
18365;DHT22;9309;52.126;11.616;2023-01-08T10:56:19;8.60;90.70
18365;DHT22;9309;52.126;11.616;2023-01-08T10:58:48;8.50;90.80
18365;DHT22;9309;52.126;11.616;2023-01-08T11:01:17;8.50;90.60
18365;DHT22;9309;52.126;11.616;2023-01-08T11:03:49;8.40;90.90
18365;DHT22;9309;52.126;11.616;2023-01-08T11:06:21;8.40;91.20
18365;DHT22;9309;52.126;11.616;2023-01-08T11:08:53;8.30;91.40
18365;DHT22;9309;52.126;11.616;2023-01-08T11:11:20;8.30;91.40
18365;DHT22;9309;52.126;11.616;2023-01-08T11:13:55;8.30;91.50
18365;DHT22;9309;52.126;11.616;2023-01-08T11:16:30;8.30;91.00
18365;DHT22;9309;52.126;11.616;2023-01-08T11:18:57;8.40;91.30
18365;DHT22;9309;52.126;11.616;2023-01-08T11:21:27;8.30;91.50
18365;DHT22;9309;52.126;11.616;2023-01-08T11:24:12;8.30;91.20
18365;DHT22;9309;52.126;11.616;2023-01-08T11:26:44;8.40;90.80
18365;DHT22;9309;52.126;11.616;2023-01-08T11:29:16;8.40;90.70
18365;DHT22;9309;52.126;11.616;2023-01-08T11:31:50;8.50;90.00
18365;DHT22;9309;52.126;11.616;2023-01-08T11:34:23;8.50;90.00
18365;DHT22;9309;52.126;11.616;2023-01-08T11:36:58;8.50;89.70
18365;DHT22;9309;52.126;11.616;2023-01-08T11:39:27;8.50;90.00
18365;DHT22;9309;52.126;11.616;2023-01-08T11:42:05;8.50;90.00
18365;DHT22;9309;52.126;11.616;2023-01-08T11:44:42;8.50;89.40
18365;DHT22;9309;52.126;11.616;2023-01-08T11:47:18;8.60;89.10
18365;DHT22;9309;52.126;11.616;2023-01-08T11:50:02;8.60;89.00
18365;DHT22;9309;52.126;11.616;2023-01-08T11:52:48;8.70;88.70
18365;DHT22;9309;52.126;11.616;2023-01-08T11:55:31;8.70;88.50
18365;DHT22;9309;52.126;11.616;2023-01-08T11:58:13;8.60;88.50
18365;DHT22;9309;52.126;11.616;2023-01-08T12:01:08;8.70;88.90
18365;DHT22;9309;52.126;11.616;2023-01-08T12:03:42;8.90;87.40
18365;DHT22;9309;52.126;11.616;2023-01-08T12:06:21;8.80;87.80
18365;DHT22;9309;52.126;11.616;2023-01-08T12:09:02;8.80;88.10
18365;DHT22;9309;52.126;11.616;2023-01-08T12:11:39;8.90;87.70
18365;DHT22;9309;52.126;11.616;2023-01-08T12:14:20;9.00;87.00
18365;DHT22;9309;52.126;11.616;2023-01-08T12:17:03;8.90;87.10
18365;DHT22;9309;52.126;11.616;2023-01-08T12:19:46;8.90;87.10
18365;DHT22;9309;52.126;11.616;2023-01-08T12:22:25;8.90;87.50
18365;DHT22;9309;52.126;11.616;2023-01-08T12:30:47;8.80;87.60
18365;DHT22;9309;52.126;11.616;2023-01-08T12:33:21;8.80;87.40
18365;DHT22;9309;52.126;11.616;2023-01-08T12:35:54;8.80;87.50
18365;DHT22;9309;52.126;11.616;2023-01-08T12:38:28;8.80;87.10
18365;DHT22;9309;52.126;11.616;2023-01-08T12:40:58;8.80;87.20
18365;DHT22;9309;52.126;11.616;2023-01-08T12:43:30;8.70;87.50
18365;DHT22;9309;52.126;11.616;2023-01-08T12:45:59;8.80;87.30
18365;DHT22;9309;52.126;11.616;2023-01-08T12:48:29;8.70;87.20
18365;DHT22;9309;52.126;11.616;2023-01-08T12:50:59;8.70;87.20
18365;DHT22;9309;52.126;11.616;2023-01-08T12:53:36;8.70;87.50
18365;DHT22;9309;52.126;11.616;2023-01-08T12:56:12;8.70;87.50
18365;DHT22;9309;52.126;11.616;2023-01-08T12:58:52;8.90;86.60
18365;DHT22;9309;52.126;11.616;2023-01-08T13:01:30;8.80;86.20
18365;DHT22;9309;52.126;11.616;2023-01-08T13:03:59;9.00;85.80
18365;DHT22;9309;52.126;11.616;2023-01-08T13:06:28;8.90;86.20
18365;DHT22;9309;52.126;11.616;2023-01-08T13:08:57;8.80;86.70
18365;DHT22;9309;52.126;11.616;2023-01-08T13:11:28;8.90;86.40
18365;DHT22;9309;52.126;11.616;2023-01-08T13:14:01;8.80;86.80
18365;DHT22;9309;52.126;11.616;2023-01-08T13:16:36;8.80;86.40
18365;DHT22;9309;52.126;11.616;2023-01-08T13:19:06;8.90;86.60
18365;DHT22;9309;52.126;11.616;2023-01-08T13:21:49;8.90;87.00
18365;DHT22;9309;52.126;11.616;2023-01-08T13:24:24;8.90;86.80
18365;DHT22;9309;52.126;11.616;2023-01-08T13:27:10;8.80;86.80
18365;DHT22;9309;52.126;11.616;2023-01-08T13:29:39;8.90;86.90
18365;DHT22;9309;52.126;11.616;2023-01-08T13:32:35;8.90;86.50
18365;DHT22;9309;52.126;11.616;2023-01-08T13:35:21;8.90;86.30
18365;DHT22;9309;52.126;11.616;2023-01-08T13:38:04;8.90;86.40
18365;DHT22;9309;52.126;11.616;2023-01-08T13:40:35;8.90;85.90
18365;DHT22;9309;52.126;11.616;2023-01-08T13:43:05;8.90;86.10
18365;DHT22;9309;52.126;11.616;2023-01-08T13:45:36;8.90;86.40
18365;DHT22;9309;52.126;11.616;2023-01-08T13:48:03;8.90;86.40
18365;DHT22;9309;52.126;11.616;2023-01-08T13:50:30;8.90;86.50
18365;DHT22;9309;52.126;11.616;2023-01-08T13:52:58;8.90;86.70
18365;DHT22;9309;52.126;11.616;2023-01-08T13:55:28;8.90;86.60
18365;DHT22;9309;52.126;11.616;2023-01-08T13:57:58;8.90;86.70
18365;DHT22;9309;52.126;11.616;2023-01-08T14:00:29;8.90;86.70
18365;DHT22;9309;52.126;11.616;2023-01-08T14:02:56;9.00;86.40
18365;DHT22;9309;52.126;11.616;2023-01-08T14:05:26;8.90;86.20
18365;DHT22;9309;52.126;11.616;2023-01-08T14:07:53;9.00;86.40
18365;DHT22;9309;52.126;11.616;2023-01-08T14:10:20;8.90;86.40
18365;DHT22;9309;52.126;11.616;2023-01-08T14:12:48;8.90;86.40
18365;DHT22;9309;52.126;11.616;2023-01-08T14:15:22;8.90;86.90
18365;DHT22;9309;52.126;11.616;2023-01-08T14:17:51;8.90;86.60
18365;DHT22;9309;52.126;11.616;2023-01-08T14:20:32;8.90;86.60
18365;DHT22;9309;52.126;11.616;2023-01-08T14:23:00;8.90;86.80
18365;DHT22;9309;52.126;11.616;2023-01-08T14:25:28;8.90;86.70
18365;DHT22;9309;52.126;11.616;2023-01-08T14:27:57;8.90;86.70
18365;DHT22;9309;52.126;11.616;2023-01-08T14:30:24;8.80;86.90
18365;DHT22;9309;52.126;11.616;2023-01-08T14:32:54;8.80;87.10
18365;DHT22;9309;52.126;11.616;2023-01-08T14:35:30;8.90;86.90
18365;DHT22;9309;52.126;11.616;2023-01-08T14:37:58;8.80;87.10
18365;DHT22;9309;52.126;11.616;2023-01-08T14:40:31;8.90;87.10
18365;DHT22;9309;52.126;11.616;2023-01-08T14:43:06;8.90;86.70
18365;DHT22;9309;52.126;11.616;2023-01-08T14:45:33;8.90;86.60
18365;DHT22;9309;52.126;11.616;2023-01-08T14:48:10;9.00;86.20
18365;DHT22;9309;52.126;11.616;2023-01-08T14:50:40;9.00;85.60
18365;DHT22;9309;52.126;11.616;2023-01-08T14:53:16;9.00;85.60
18365;DHT22;9309;52.126;11.616;2023-01-08T14:55:47;9.00;85.80
18365;DHT22;9309;52.126;11.616;2023-01-08T15:05:50;8.80;86.60
18365;DHT22;9309;52.126;11.616;2023-01-08T15:08:23;8.70;86.50
18365;DHT22;9309;52.126;11.616;2023-01-08T15:14:37;8.70;86.80
18365;DHT22;9309;52.126;11.616;2023-01-08T15:17:08;8.60;87.10
18365;DHT22;9309;52.126;11.616;2023-01-08T15:19:40;8.60;87.20
18365;DHT22;9309;52.126;11.616;2023-01-08T15:26:11;8.60;87.20
18365;DHT22;9309;52.126;11.616;2023-01-08T15:28:53;8.50;87.50
18365;DHT22;9309;52.126;11.616;2023-01-08T15:31:29;8.50;87.50
18365;DHT22;9309;52.126;11.616;2023-01-08T15:33:59;8.50;87.50
18365;DHT22;9309;52.126;11.616;2023-01-08T15:36:29;8.40;87.90
18365;DHT22;9309;52.126;11.616;2023-01-08T15:38:59;8.40;87.70
18365;DHT22;9309;52.126;11.616;2023-01-08T15:41:43;8.40;87.90
18365;DHT22;9309;52.126;11.616;2023-01-08T15:44:32;8.30;88.10
18365;DHT22;9309;52.126;11.616;2023-01-08T15:46:59;8.40;87.60
18365;DHT22;9309;52.126;11.616;2023-01-08T15:49:41;8.40;87.50
18365;DHT22;9309;52.126;11.616;2023-01-08T15:52:11;8.30;87.60
18365;DHT22;9309;52.126;11.616;2023-01-08T15:54:38;8.30;87.40
18365;DHT22;9309;52.126;11.616;2023-01-08T15:57:09;8.40;87.30
18365;DHT22;9309;52.126;11.616;2023-01-08T15:59:37;8.40;87.20
18365;DHT22;9309;52.126;11.616;2023-01-08T16:02:03;8.30;87.10
18365;DHT22;9309;52.126;11.616;2023-01-08T16:04:30;8.30;86.90
18365;DHT22;9309;52.126;11.616;2023-01-08T16:06:57;8.30;87.20
18365;DHT22;9309;52.126;11.616;2023-01-08T16:09:23;8.30;87.10
18365;DHT22;9309;52.126;11.616;2023-01-08T16:11:50;8.30;86.70
18365;DHT22;9309;52.126;11.616;2023-01-08T16:14:18;8.30;86.50
18365;DHT22;9309;52.126;11.616;2023-01-08T16:16:45;8.30;86.80
18365;DHT22;9309;52.126;11.616;2023-01-08T16:19:12;8.20;86.80
18365;DHT22;9309;52.126;11.616;2023-01-08T16:21:38;8.30;86.40